sensor_id;sensor_type;location;lat;lon;timestamp;P1;durP1;ratioP1;P2;durP2;ratioP2
13799;SDS011;6971;50.028;9.258;2022-09-01T00:04:24;2.57;;;2.00;;
13799;SDS011;6971;50.028;9.258;2022-09-01T00:09:27;3.10;;;2.10;;
13799;SDS011;6971;50.028;9.258;2022-09-01T00:14:29;2.87;;;1.97;;
13799;SDS011;6971;50.028;9.258;2022-09-01T00:19:31;3.10;;;2.10;;
13799;SDS011;6971;50.028;9.258;2022-09-01T00:24:33;4.40;;;2.20;;
13799;SDS011;6971;50.028;9.258;2022-09-01T00:29:35;2.67;;;2.17;;
13799;SDS011;6971;50.028;9.258;2022-09-01T00:34:38;3.37;;;1.80;;
13799;SDS011;6971;50.028;9.258;2022-09-01T00:39:39;2.80;;;2.20;;
13799;SDS011;6971;50.028;9.258;2022-09-01T00:44:40;2.10;;;2.00;;
13799;SDS011;6971;50.028;9.258;2022-09-01T00:49:42;2.70;;;2.10;;
13799;SDS011;6971;50.028;9.258;2022-09-01T00:54:48;2.53;;;2.10;;
13799;SDS011;6971;50.028;9.258;2022-09-01T01:00:15;2.50;;;2.30;;
13799;SDS011;6971;50.028;9.258;2022-09-01T01:05:17;2.80;;;2.40;;
13799;SDS011;6971;50.028;9.258;2022-09-01T01:10:38;4.23;;;2.50;;
13799;SDS011;6971;50.028;9.258;2022-09-01T01:15:42;4.57;;;2.53;;
13799;SDS011;6971;50.028;9.258;2022-09-01T01:20:44;3.40;;;2.37;;
13799;SDS011;6971;50.028;9.258;2022-09-01T01:26:07;4.40;;;2.63;;
13799;SDS011;6971;50.028;9.258;2022-09-01T01:31:11;2.60;;;2.40;;
13799;SDS011;6971;50.028;9.258;2022-09-01T01:36:22;4.53;;;2.63;;
13799;SDS011;6971;50.028;9.258;2022-09-01T01:41:36;3.10;;;2.47;;
13799;SDS011;6971;50.028;9.258;2022-09-01T01:46:42;3.53;;;2.47;;
13799;SDS011;6971;50.028;9.258;2022-09-01T01:51:46;2.40;;;2.20;;
13799;SDS011;6971;50.028;9.258;2022-09-01T01:56:49;2.77;;;2.57;;
13799;SDS011;6971;50.028;9.258;2022-09-01T02:01:51;3.50;;;2.40;;
13799;SDS011;6971;50.028;9.258;2022-09-01T02:06:53;3.63;;;2.63;;
13799;SDS011;6971;50.028;9.258;2022-09-01T02:11:55;2.47;;;2.27;;
13799;SDS011;6971;50.028;9.258;2022-09-01T02:16:56;2.90;;;2.60;;
13799;SDS011;6971;50.028;9.258;2022-09-01T02:21:57;2.83;;;2.40;;
13799;SDS011;6971;50.028;9.258;2022-09-01T02:27:00;3.00;;;2.70;;
13799;SDS011;6971;50.028;9.258;2022-09-01T02:32:02;3.73;;;2.60;;
13799;SDS011;6971;50.028;9.258;2022-09-01T02:37:03;3.10;;;2.60;;
13799;SDS011;6971;50.028;9.258;2022-09-01T02:42:05;2.90;;;2.60;;
13799;SDS011;6971;50.028;9.258;2022-09-01T02:47:07;3.20;;;2.80;;
13799;SDS011;6971;50.028;9.258;2022-09-01T02:52:09;3.23;;;2.93;;
13799;SDS011;6971;50.028;9.258;2022-09-01T02:57:11;3.10;;;2.80;;
13799;SDS011;6971;50.028;9.258;2022-09-01T03:02:12;3.60;;;3.23;;
13799;SDS011;6971;50.028;9.258;2022-09-01T03:07:13;4.03;;;3.13;;
13799;SDS011;6971;50.028;9.258;2022-09-01T03:12:14;3.80;;;3.43;;
13799;SDS011;6971;50.028;9.258;2022-09-01T03:17:15;2.97;;;2.70;;
13799;SDS011;6971;50.028;9.258;2022-09-01T03:22:17;3.40;;;3.10;;
13799;SDS011;6971;50.028;9.258;2022-09-01T03:27:18;3.40;;;3.10;;
13799;SDS011;6971;50.028;9.258;2022-09-01T03:32:19;3.67;;;3.37;;
13799;SDS011;6971;50.028;9.258;2022-09-01T03:37:21;3.80;;;3.40;;
13799;SDS011;6971;50.028;9.258;2022-09-01T03:42:23;3.80;;;3.40;;
13799;SDS011;6971;50.028;9.258;2022-09-01T03:47:27;3.47;;;3.17;;
13799;SDS011;6971;50.028;9.258;2022-09-01T03:52:32;4.13;;;3.70;;
13799;SDS011;6971;50.028;9.258;2022-09-01T03:57:33;4.00;;;3.27;;
13799;SDS011;6971;50.028;9.258;2022-09-01T04:02:37;3.97;;;3.67;;
13799;SDS011;6971;50.028;9.258;2022-09-01T04:07:38;3.73;;;3.43;;
13799;SDS011;6971;50.028;9.258;2022-09-01T04:12:40;4.10;;;3.07;;
13799;SDS011;6971;50.028;9.258;2022-09-01T04:17:42;4.33;;;3.60;;
13799;SDS011;6971;50.028;9.258;2022-09-01T04:23:02;3.70;;;3.40;;
13799;SDS011;6971;50.028;9.258;2022-09-01T04:28:10;4.20;;;3.50;;
13799;SDS011;6971;50.028;9.258;2022-09-01T04:33:23;3.83;;;3.53;;
13799;SDS011;6971;50.028;9.258;2022-09-01T04:38:25;4.30;;;3.90;;
13799;SDS011;6971;50.028;9.258;2022-09-01T04:43:29;6.13;;;3.93;;
13799;SDS011;6971;50.028;9.258;2022-09-01T04:48:29;5.47;;;3.90;;
13799;SDS011;6971;50.028;9.258;2022-09-01T04:53:31;3.57;;;3.27;;
13799;SDS011;6971;50.028;9.258;2022-09-01T04:58:33;4.63;;;4.00;;
13799;SDS011;6971;50.028;9.258;2022-09-01T05:03:54;4.13;;;3.83;;
13799;SDS011;6971;50.028;9.258;2022-09-01T05:09:00;4.50;;;3.47;;
13799;SDS011;6971;50.028;9.258;2022-09-01T05:14:02;5.13;;;3.47;;
13799;SDS011;6971;50.028;9.258;2022-09-01T05:19:06;4.27;;;3.87;;
13799;SDS011;6971;50.028;9.258;2022-09-01T05:24:15;10.47;;;9.67;;
13799;SDS011;6971;50.028;9.258;2022-09-01T05:29:21;4.60;;;4.07;;
13799;SDS011;6971;50.028;9.258;2022-09-01T05:34:22;3.60;;;3.30;;
13799;SDS011;6971;50.028;9.258;2022-09-01T05:39:26;3.73;;;3.43;;
13799;SDS011;6971;50.028;9.258;2022-09-01T05:44:28;4.07;;;3.10;;
13799;SDS011;6971;50.028;9.258;2022-09-01T05:49:29;7.70;;;5.47;;
13799;SDS011;6971;50.028;9.258;2022-09-01T05:54:33;5.13;;;3.90;;
13799;SDS011;6971;50.028;9.258;2022-09-01T05:59:34;5.47;;;3.97;;
13799;SDS011;6971;50.028;9.258;2022-09-01T06:04:36;4.17;;;3.23;;
13799;SDS011;6971;50.028;9.258;2022-09-01T06:09:41;3.90;;;3.50;;
13799;SDS011;6971;50.028;9.258;2022-09-01T06:14:47;3.70;;;3.40;;
13799;SDS011;6971;50.028;9.258;2022-09-01T06:19:50;5.30;;;3.37;;
13799;SDS011;6971;50.028;9.258;2022-09-01T06:24:52;4.70;;;3.50;;
13799;SDS011;6971;50.028;9.258;2022-09-01T06:29:54;7.90;;;3.10;;
13799;SDS011;6971;50.028;9.258;2022-09-01T06:34:56;6.33;;;3.43;;
13799;SDS011;6971;50.028;9.258;2022-09-01T06:39:59;9.47;;;3.93;;
13799;SDS011;6971;50.028;9.258;2022-09-01T06:45:02;3.67;;;2.87;;
13799;SDS011;6971;50.028;9.258;2022-09-01T06:50:03;8.27;;;3.10;;
13799;SDS011;6971;50.028;9.258;2022-09-01T06:55:27;3.73;;;2.77;;
13799;SDS011;6971;50.028;9.258;2022-09-01T07:00:32;8.33;;;2.53;;
13799;SDS011;6971;50.028;9.258;2022-09-01T07:05:42;2.30;;;2.10;;
13799;SDS011;6971;50.028;9.258;2022-09-01T07:10:49;3.27;;;2.10;;
13799;SDS011;6971;50.028;9.258;2022-09-01T07:15:52;3.03;;;2.37;;
13799;SDS011;6971;50.028;9.258;2022-09-01T07:20:55;3.93;;;2.07;;
13799;SDS011;6971;50.028;9.258;2022-09-01T07:25:56;4.27;;;2.40;;
13799;SDS011;6971;50.028;9.258;2022-09-01T07:30:59;3.50;;;2.20;;
13799;SDS011;6971;50.028;9.258;2022-09-01T07:36:01;2.70;;;2.10;;
13799;SDS011;6971;50.028;9.258;2022-09-01T07:41:12;2.60;;;2.40;;
13799;SDS011;6971;50.028;9.258;2022-09-01T07:46:13;2.60;;;2.20;;
13799;SDS011;6971;50.028;9.258;2022-09-01T07:51:15;4.80;;;2.13;;
13799;SDS011;6971;50.028;9.258;2022-09-01T07:56:20;3.23;;;2.10;;
13799;SDS011;6971;50.028;9.258;2022-09-01T08:01:24;3.77;;;2.47;;
13799;SDS011;6971;50.028;9.258;2022-09-01T08:06:27;2.93;;;2.23;;
13799;SDS011;6971;50.028;9.258;2022-09-01T08:11:30;2.47;;;2.10;;
13799;SDS011;6971;50.028;9.258;2022-09-01T08:16:31;3.10;;;2.30;;
13799;SDS011;6971;50.028;9.258;2022-09-01T08:21:32;2.13;;;1.93;;
13799;SDS011;6971;50.028;9.258;2022-09-01T08:26:33;2.60;;;2.33;;
13799;SDS011;6971;50.028;9.258;2022-09-01T08:31:35;2.67;;;2.40;;
13799;SDS011;6971;50.028;9.258;2022-09-01T08:36:36;2.43;;;2.23;;
13799;SDS011;6971;50.028;9.258;2022-09-01T08:41:42;4.93;;;2.10;;
13799;SDS011;6971;50.028;9.258;2022-09-01T08:46:47;2.40;;;2.07;;
13799;SDS011;6971;50.028;9.258;2022-09-01T08:51:56;2.70;;;2.27;;
13799;SDS011;6971;50.028;9.258;2022-09-01T08:57:07;2.10;;;2.00;;
13799;SDS011;6971;50.028;9.258;2022-09-01T09:08:21;2.53;;;2.33;;
13799;SDS011;6971;50.028;9.258;2022-09-01T09:13:20;4.00;;;2.40;;
13799;SDS011;6971;50.028;9.258;2022-09-01T09:19:01;3.47;;;2.57;;
13799;SDS011;6971;50.028;9.258;2022-09-01T09:24:15;3.93;;;2.50;;
13799;SDS011;6971;50.028;9.258;2022-09-01T09:29:23;2.37;;;2.00;;
13799;SDS011;6971;50.028;9.258;2022-09-01T09:34:36;3.00;;;2.07;;
13799;SDS011;6971;50.028;9.258;2022-09-01T09:39:39;2.60;;;2.10;;
13799;SDS011;6971;50.028;9.258;2022-09-01T09:44:42;2.53;;;2.07;;
13799;SDS011;6971;50.028;9.258;2022-09-01T09:49:44;2.40;;;2.20;;
13799;SDS011;6971;50.028;9.258;2022-09-01T09:54:59;1.80;;;1.70;;
13799;SDS011;6971;50.028;9.258;2022-09-01T10:00:07;2.73;;;2.00;;
13799;SDS011;6971;50.028;9.258;2022-09-01T10:05:34;3.67;;;2.00;;
13799;SDS011;6971;50.028;9.258;2022-09-01T10:10:46;3.43;;;2.00;;
13799;SDS011;6971;50.028;9.258;2022-09-01T10:16:00;2.87;;;1.97;;
13799;SDS011;6971;50.028;9.258;2022-09-01T10:21:23;4.00;;;2.17;;
13799;SDS011;6971;50.028;9.258;2022-09-01T10:26:37;3.80;;;2.03;;
13799;SDS011;6971;50.028;9.258;2022-09-01T10:31:41;3.40;;;2.00;;
13799;SDS011;6971;50.028;9.258;2022-09-01T10:36:42;3.70;;;1.77;;
13799;SDS011;6971;50.028;9.258;2022-09-01T10:46:57;2.87;;;2.10;;
13799;SDS011;6971;50.028;9.258;2022-09-01T10:52:02;5.27;;;2.20;;
13799;SDS011;6971;50.028;9.258;2022-09-01T10:57:08;4.27;;;1.90;;
13799;SDS011;6971;50.028;9.258;2022-09-01T11:02:18;2.47;;;1.93;;
13799;SDS011;6971;50.028;9.258;2022-09-01T11:07:40;2.73;;;1.90;;
13799;SDS011;6971;50.028;9.258;2022-09-01T11:12:51;3.30;;;1.80;;
13799;SDS011;6971;50.028;9.258;2022-09-01T11:18:01;1.70;;;1.60;;
13799;SDS011;6971;50.028;9.258;2022-09-01T11:23:19;2.40;;;1.90;;
13799;SDS011;6971;50.028;9.258;2022-09-01T11:28:34;2.93;;;2.00;;
13799;SDS011;6971;50.028;9.258;2022-09-01T11:33:45;4.07;;;1.90;;
13799;SDS011;6971;50.028;9.258;2022-09-01T11:50:04;1.87;;;1.77;;
13799;SDS011;6971;50.028;9.258;2022-09-01T11:55:08;3.93;;;1.83;;
13799;SDS011;6971;50.028;9.258;2022-09-01T12:00:11;3.13;;;1.63;;
13799;SDS011;6971;50.028;9.258;2022-09-01T12:05:33;2.17;;;1.80;;
13799;SDS011;6971;50.028;9.258;2022-09-01T12:10:37;2.10;;;1.90;;
13799;SDS011;6971;50.028;9.258;2022-09-01T12:15:40;2.13;;;1.77;;
13799;SDS011;6971;50.028;9.258;2022-09-01T12:20:45;2.20;;;1.70;;
13799;SDS011;6971;50.028;9.258;2022-09-01T12:26:00;3.47;;;1.80;;
13799;SDS011;6971;50.028;9.258;2022-09-01T12:31:05;2.00;;;1.90;;
13799;SDS011;6971;50.028;9.258;2022-09-01T12:36:22;3.23;;;2.07;;
13799;SDS011;6971;50.028;9.258;2022-09-01T12:41:37;5.83;;;2.17;;
13799;SDS011;6971;50.028;9.258;2022-09-01T12:46:43;3.33;;;1.87;;
13799;SDS011;6971;50.028;9.258;2022-09-01T12:51:45;2.50;;;2.13;;
13799;SDS011;6971;50.028;9.258;2022-09-01T12:56:49;2.83;;;2.10;;
13799;SDS011;6971;50.028;9.258;2022-09-01T13:01:51;2.87;;;2.30;;
13799;SDS011;6971;50.028;9.258;2022-09-01T13:06:53;3.47;;;1.93;;
13799;SDS011;6971;50.028;9.258;2022-09-01T13:12:09;2.37;;;2.17;;
13799;SDS011;6971;50.028;9.258;2022-09-01T13:17:20;3.47;;;2.10;;
13799;SDS011;6971;50.028;9.258;2022-09-01T13:22:23;4.07;;;2.17;;
13799;SDS011;6971;50.028;9.258;2022-09-01T13:27:25;4.90;;;2.20;;
13799;SDS011;6971;50.028;9.258;2022-09-01T13:32:26;2.87;;;2.07;;
13799;SDS011;6971;50.028;9.258;2022-09-01T13:37:29;3.80;;;2.00;;
13799;SDS011;6971;50.028;9.258;2022-09-01T13:42:30;3.40;;;1.90;;
13799;SDS011;6971;50.028;9.258;2022-09-01T13:47:31;2.47;;;2.10;;
13799;SDS011;6971;50.028;9.258;2022-09-01T13:52:32;2.40;;;2.07;;
13799;SDS011;6971;50.028;9.258;2022-09-01T13:57:34;4.03;;;1.80;;
13799;SDS011;6971;50.028;9.258;2022-09-01T14:02:36;2.40;;;2.13;;
13799;SDS011;6971;50.028;9.258;2022-09-01T14:07:38;5.43;;;1.87;;
13799;SDS011;6971;50.028;9.258;2022-09-01T14:12:39;4.63;;;1.73;;
13799;SDS011;6971;50.028;9.258;2022-09-01T14:17:49;5.77;;;2.20;;
13799;SDS011;6971;50.028;9.258;2022-09-01T14:22:51;5.87;;;2.10;;
13799;SDS011;6971;50.028;9.258;2022-09-01T14:27:52;1.63;;;1.53;;
13799;SDS011;6971;50.028;9.258;2022-09-01T14:32:53;3.93;;;2.17;;
13799;SDS011;6971;50.028;9.258;2022-09-01T14:37:54;2.57;;;1.77;;
13799;SDS011;6971;50.028;9.258;2022-09-01T14:42:55;4.03;;;1.80;;
13799;SDS011;6971;50.028;9.258;2022-09-01T14:47:58;3.27;;;2.17;;
13799;SDS011;6971;50.028;9.258;2022-09-01T14:53:01;4.30;;;2.00;;
13799;SDS011;6971;50.028;9.258;2022-09-01T14:58:03;5.87;;;2.17;;
13799;SDS011;6971;50.028;9.258;2022-09-01T15:03:24;3.00;;;1.73;;
13799;SDS011;6971;50.028;9.258;2022-09-01T15:08:25;3.37;;;1.87;;
13799;SDS011;6971;50.028;9.258;2022-09-01T15:13:26;2.13;;;1.90;;
13799;SDS011;6971;50.028;9.258;2022-09-01T15:18:27;3.63;;;1.93;;
13799;SDS011;6971;50.028;9.258;2022-09-01T15:23:48;4.30;;;2.27;;
13799;SDS011;6971;50.028;9.258;2022-09-01T15:28:50;7.93;;;2.20;;
13799;SDS011;6971;50.028;9.258;2022-09-01T15:33:51;3.70;;;2.00;;
13799;SDS011;6971;50.028;9.258;2022-09-01T15:38:57;2.60;;;2.40;;
13799;SDS011;6971;50.028;9.258;2022-09-01T15:44:00;4.27;;;1.93;;
13799;SDS011;6971;50.028;9.258;2022-09-01T15:49:08;2.73;;;1.90;;
13799;SDS011;6971;50.028;9.258;2022-09-01T15:54:18;46.37;;;42.07;;
13799;SDS011;6971;50.028;9.258;2022-09-01T15:59:20;71.57;;;61.23;;
13799;SDS011;6971;50.028;9.258;2022-09-01T16:04:23;113.80;;;101.67;;
13799;SDS011;6971;50.028;9.258;2022-09-01T16:09:25;162.17;;;149.53;;
13799;SDS011;6971;50.028;9.258;2022-09-01T16:14:26;8.47;;;5.20;;
13799;SDS011;6971;50.028;9.258;2022-09-01T16:25:01;2.33;;;2.07;;
13799;SDS011;6971;50.028;9.258;2022-09-01T16:30:09;2.60;;;2.00;;
13799;SDS011;6971;50.028;9.258;2022-09-01T16:35:16;3.73;;;2.43;;
13799;SDS011;6971;50.028;9.258;2022-09-01T16:40:36;5.07;;;2.23;;
13799;SDS011;6971;50.028;9.258;2022-09-01T16:57:01;20.23;;;18.73;;
13799;SDS011;6971;50.028;9.258;2022-09-01T17:07:23;3.87;;;2.30;;
13799;SDS011;6971;50.028;9.258;2022-09-01T17:17:43;1.80;;;1.70;;
13799;SDS011;6971;50.028;9.258;2022-09-01T17:23:08;3.43;;;2.20;;
13799;SDS011;6971;50.028;9.258;2022-09-01T17:28:23;2.93;;;2.33;;
13799;SDS011;6971;50.028;9.258;2022-09-01T18:00:22;3.83;;;2.30;;
13799;SDS011;6971;50.028;9.258;2022-09-01T18:05:43;3.53;;;2.40;;
13799;SDS011;6971;50.028;9.258;2022-09-01T18:11:01;4.80;;;2.37;;
13799;SDS011;6971;50.028;9.258;2022-09-01T18:16:12;2.27;;;2.07;;
13799;SDS011;6971;50.028;9.258;2022-09-01T18:21:17;2.60;;;2.40;;
13799;SDS011;6971;50.028;9.258;2022-09-01T18:26:28;2.20;;;2.07;;
13799;SDS011;6971;50.028;9.258;2022-09-01T18:36:39;6.40;;;2.27;;
13799;SDS011;6971;50.028;9.258;2022-09-01T18:41:48;2.40;;;2.20;;
13799;SDS011;6971;50.028;9.258;2022-09-01T18:52:12;2.37;;;2.17;;
13799;SDS011;6971;50.028;9.258;2022-09-01T18:57:28;2.90;;;2.50;;
13799;SDS011;6971;50.028;9.258;2022-09-01T19:07:53;3.03;;;2.40;;
13799;SDS011;6971;50.028;9.258;2022-09-01T19:13:10;2.63;;;2.43;;
13799;SDS011;6971;50.028;9.258;2022-09-01T19:18:48;2.53;;;2.33;;
13799;SDS011;6971;50.028;9.258;2022-09-01T19:29:24;2.60;;;2.30;;
13799;SDS011;6971;50.028;9.258;2022-09-01T19:34:40;4.17;;;2.93;;
13799;SDS011;6971;50.028;9.258;2022-09-01T19:39:45;3.50;;;2.20;;
13799;SDS011;6971;50.028;9.258;2022-09-01T20:01:08;3.67;;;3.30;;
13799;SDS011;6971;50.028;9.258;2022-09-01T20:06:29;4.70;;;3.00;;
13799;SDS011;6971;50.028;9.258;2022-09-01T20:11:51;3.43;;;2.80;;
13799;SDS011;6971;50.028;9.258;2022-09-01T20:17:06;4.97;;;3.20;;
13799;SDS011;6971;50.028;9.258;2022-09-01T20:22:28;4.67;;;3.43;;
13799;SDS011;6971;50.028;9.258;2022-09-01T20:27:37;4.70;;;2.83;;
13799;SDS011;6971;50.028;9.258;2022-09-01T20:37:54;3.67;;;2.77;;
13799;SDS011;6971;50.028;9.258;2022-09-01T20:43:19;3.17;;;2.70;;
13799;SDS011;6971;50.028;9.258;2022-09-01T20:48:26;4.83;;;2.90;;
13799;SDS011;6971;50.028;9.258;2022-09-01T20:58:54;3.27;;;2.30;;
13799;SDS011;6971;50.028;9.258;2022-09-01T21:04:03;3.73;;;2.30;;
13799;SDS011;6971;50.028;9.258;2022-09-01T21:09:14;3.90;;;2.37;;
13799;SDS011;6971;50.028;9.258;2022-09-01T21:14:33;4.13;;;2.00;;
13799;SDS011;6971;50.028;9.258;2022-09-01T21:20:02;5.43;;;2.20;;
13799;SDS011;6971;50.028;9.258;2022-09-01T21:25:17;2.87;;;2.30;;
13799;SDS011;6971;50.028;9.258;2022-09-01T21:30:20;2.73;;;1.90;;
13799;SDS011;6971;50.028;9.258;2022-09-01T21:35:22;2.17;;;1.93;;
13799;SDS011;6971;50.028;9.258;2022-09-01T21:40:24;2.47;;;1.63;;
13799;SDS011;6971;50.028;9.258;2022-09-01T21:45:26;2.30;;;1.90;;
13799;SDS011;6971;50.028;9.258;2022-09-01T21:50:27;2.53;;;2.03;;
13799;SDS011;6971;50.028;9.258;2022-09-01T21:55:28;3.80;;;2.20;;
13799;SDS011;6971;50.028;9.258;2022-09-01T22:00:33;2.70;;;1.70;;
13799;SDS011;6971;50.028;9.258;2022-09-01T22:05:36;2.90;;;2.07;;
13799;SDS011;6971;50.028;9.258;2022-09-01T22:10:43;2.80;;;2.10;;
13799;SDS011;6971;50.028;9.258;2022-09-01T22:15:46;2.40;;;1.67;;
13799;SDS011;6971;50.028;9.258;2022-09-01T22:20:50;2.60;;;2.00;;
13799;SDS011;6971;50.028;9.258;2022-09-01T22:25:51;2.10;;;1.60;;
13799;SDS011;6971;50.028;9.258;2022-09-01T22:30:51;2.77;;;2.00;;
13799;SDS011;6971;50.028;9.258;2022-09-01T22:35:54;4.70;;;2.00;;
13799;SDS011;6971;50.028;9.258;2022-09-01T22:40:56;3.43;;;1.90;;
13799;SDS011;6971;50.028;9.258;2022-09-01T22:45:59;3.87;;;1.87;;
13799;SDS011;6971;50.028;9.258;2022-09-01T22:51:03;1.80;;;1.70;;
13799;SDS011;6971;50.028;9.258;2022-09-01T22:56:09;2.90;;;1.70;;
13799;SDS011;6971;50.028;9.258;2022-09-01T23:01:13;2.13;;;1.60;;
13799;SDS011;6971;50.028;9.258;2022-09-01T23:06:18;2.40;;;1.80;;
13799;SDS011;6971;50.028;9.258;2022-09-01T23:11:20;4.07;;;1.90;;
13799;SDS011;6971;50.028;9.258;2022-09-01T23:16:22;4.10;;;1.70;;
13799;SDS011;6971;50.028;9.258;2022-09-01T23:21:26;2.67;;;1.73;;
13799;SDS011;6971;50.028;9.258;2022-09-01T23:26:29;2.67;;;1.67;;
13799;SDS011;6971;50.028;9.258;2022-09-01T23:31:34;3.17;;;1.97;;
13799;SDS011;6971;50.028;9.258;2022-09-01T23:36:37;2.10;;;1.77;;
13799;SDS011;6971;50.028;9.258;2022-09-01T23:41:39;2.53;;;1.53;;
13799;SDS011;6971;50.028;9.258;2022-09-01T23:46:41;1.70;;;1.60;;
13799;SDS011;6971;50.028;9.258;2022-09-01T23:51:45;3.50;;;1.80;;
13799;SDS011;6971;50.028;9.258;2022-09-01T23:56:47;2.53;;;1.83;;
